Time;durP1;ratioP1;P1;durP2;ratioP2;P2;SDS_P1;SDS_P2;PMS_P1;PMS_P2;Temp;Humidity;BMP_temperature;BMP_pressure;BME280_temperature;BME280_humidity;BME280_pressure;Samples;Min_cycle;Max_cycle;Signal;HPM_P1;HPM_P2
2022/03/07 00:01:38;;;;;;;27.42;16.23;;;1.70;61.80;;;0.61;45.50;95257.84;4998161;28;20190;-84
2022/03/07 00:04:05;;;;;;;28.05;15.98;;;1.70;61.80;;;0.48;45.80;95239.91;4998116;28;20217;-85
2022/03/07 00:06:33;;;;;;;25.70;15.82;;;1.70;61.80;;;0.63;45.56;95263.69;5022074;28;20266;-85
2022/03/07 00:09:00;;;;;;;26.77;16.30;;;1.70;61.80;;;0.63;45.73;95265.44;5015112;28;20697;-84
2022/03/07 00:11:28;;;;;;;28.95;17.95;;;1.70;61.80;;;0.62;45.29;95267.22;5033507;28;20298;-84
2022/03/07 00:13:55;;;;;;;27.80;17.85;;;1.70;61.70;;;0.58;45.55;95259.84;5017236;28;20262;-84
2022/03/07 00:16:23;;;;;;;31.42;18.10;;;1.70;61.70;;;0.55;46.08;95266.06;5017281;28;20205;-84
2022/03/07 00:18:50;;;;;;;32.28;18.92;;;1.70;61.70;;;0.52;45.68;95253.38;5006332;28;20213;-84
2022/03/07 00:21:18;;;;;;;30.42;17.83;;;1.70;62.40;;;0.53;45.68;95265.34;4997889;28;20193;-84
2022/03/07 00:23:45;;;;;;;35.47;19.23;;;1.70;61.80;;;0.52;45.62;95257.75;4997633;28;20661;-84
2022/03/07 00:26:12;;;;;;;32.60;19.17;;;1.70;61.80;;;0.55;45.75;95265.22;5030478;28;20198;-85
2022/03/07 00:28:40;;;;;;;29.58;18.92;;;1.70;61.80;;;0.52;45.65;95265.50;4998253;28;20226;-84
2022/03/07 00:31:07;;;;;;;31.88;19.60;;;1.70;61.80;;;0.50;45.79;95267.34;4997433;28;20540;-84
2022/03/07 00:33:35;;;;;;;29.27;18.27;;;1.60;61.60;;;0.50;45.65;95273.34;5013733;28;20228;-84
2022/03/07 00:36:06;;;;;;;29.73;17.85;;;1.60;61.60;;;0.51;46.14;95269.00;4983046;28;20189;-85
2022/03/07 00:38:34;;;;;;;28.20;17.92;;;1.60;61.70;;;0.51;45.74;95271.59;4996549;28;20209;-85
2022/03/07 00:41:03;;;;;;;29.67;17.85;;;1.60;61.70;;;0.51;45.77;95271.59;4996826;28;20236;-84
2022/03/07 00:43:30;;;;;;;26.65;16.35;;;1.60;61.70;;;0.51;45.74;95272.38;4981208;28;20283;-85
2022/03/07 00:45:58;;;;;;;26.17;16.88;;;1.60;61.80;;;0.47;45.64;95263.25;4997286;28;20197;-83
2022/03/07 00:48:25;;;;;;;25.50;16.85;;;1.60;61.80;;;0.46;45.62;95261.63;4997584;28;20706;-84
2022/03/07 00:50:53;;;;;;;28.63;16.98;;;1.60;61.80;;;0.47;45.62;95266.66;4997272;28;20193;-85
2022/03/07 00:53:24;;;;;;;30.38;17.98;;;1.60;61.90;;;0.47;45.86;95268.41;4996201;28;20284;-85
2022/03/07 00:55:53;;;;;;;29.02;17.55;;;1.60;61.80;;;0.42;45.72;95263.63;4996665;28;20201;-85
2022/03/07 00:58:22;;;;;;;31.27;19.40;;;1.60;61.90;;;0.43;45.66;95265.25;4997358;28;20228;-84
2022/03/07 01:00:50;;;;;;;29.42;18.75;;;1.50;61.80;;;0.44;45.94;95268.66;5016263;28;20291;-85
2022/03/07 01:03:18;;;;;;;28.27;18.65;;;1.60;61.90;;;0.42;45.88;95263.63;5016154;28;20212;-84
2022/03/07 01:05:46;;;;;;;28.73;17.77;;;1.50;61.90;;;0.42;45.85;95252.50;5016056;28;20200;-84
2022/03/07 01:08:15;;;;;;;30.45;17.95;;;1.50;62.00;;;0.40;45.86;95260.31;5016172;28;20209;-84
2022/03/07 01:10:42;;;;;;;29.58;18.55;;;1.50;62.00;;;0.39;45.97;95253.56;5014160;28;20208;-84
2022/03/07 01:13:10;;;;;;;29.67;18.13;;;1.50;62.10;;;0.30;46.00;95244.75;5032461;28;20309;-84
2022/03/07 01:15:37;;;;;;;29.38;19.75;;;1.50;62.10;;;0.24;45.97;95234.91;5016096;28;20647;-85
2022/03/07 01:18:04;;;;;;;26.25;18.23;;;1.50;62.20;;;0.37;46.20;95252.84;5006380;28;20667;-85
2022/03/07 01:20:32;;;;;;;29.48;18.27;;;1.50;62.20;;;0.36;46.11;95258.13;4980500;28;20210;-84
2022/03/07 01:23:00;;;;;;;26.33;17.17;;;1.50;62.30;;;0.35;46.16;95259.06;4996094;28;20211;-84
2022/03/07 01:25:27;;;;;;;28.58;18.33;;;1.50;62.30;;;0.31;46.32;95251.56;5012903;28;20193;-84
2022/03/07 01:27:54;;;;;;;29.85;19.73;;;1.40;62.30;;;0.27;46.58;95245.00;5012277;28;20616;-84
2022/03/07 01:30:22;;;;;;;32.40;19.23;;;1.50;62.50;;;0.31;46.25;95250.75;4996278;28;20293;-84
2022/03/07 01:32:52;;;;;;;29.08;18.27;;;1.40;62.30;;;0.29;46.42;95247.47;4996166;28;20315;-84
2022/03/07 01:35:22;;;;;;;26.92;17.77;;;1.40;62.40;;;0.17;46.53;95231.16;4996863;28;20194;-85
2022/03/07 01:37:50;;;;;;;26.30;16.60;;;1.40;62.50;;;0.30;46.44;95244.75;4995972;28;20296;-84
2022/03/07 01:40:17;;;;;;;27.88;16.60;;;1.40;62.50;;;0.32;46.63;95248.03;5011376;28;20197;-85
2022/03/07 01:42:44;;;;;;;31.05;18.48;;;1.40;62.50;;;0.30;46.58;95246.53;4996059;28;20228;-85
2022/03/07 01:45:16;;;;;;;30.67;18.58;;;1.40;62.60;;;0.31;46.82;95248.97;4995855;28;20201;-84
2022/03/07 01:47:44;;;;;;;30.63;18.83;;;1.40;62.60;;;0.29;46.70;95248.28;4995570;28;20186;-85
2022/03/07 01:50:16;;;;;;;30.35;19.23;;;1.40;62.60;;;0.21;46.99;95244.66;5012659;28;20202;-85
2022/03/07 01:52:48;;;;;;;32.58;19.80;;;1.40;62.70;;;0.27;46.18;95252.75;4995812;28;20221;-85
2022/03/07 01:55:17;;;;;;;29.67;19.55;;;1.40;62.80;;;0.24;46.95;95245.22;4996510;28;20197;-85
2022/03/07 01:57:50;;;;;;;26.38;18.17;;;1.40;62.80;;;0.25;46.99;95246.88;5016478;28;20212;-84
2022/03/07 02:00:24;;;;;;;29.42;19.58;;;1.40;62.80;;;0.18;47.10;95232.81;4999496;28;20207;-84
2022/03/07 02:02:53;;;;;;;32.38;20.40;;;1.30;63.00;;;0.21;47.16;95245.50;5015833;28;20287;-84
2022/03/07 02:05:31;;;;;;;31.60;20.67;;;1.30;63.20;;;0.20;47.73;95251.59;5016814;28;20218;-84
2022/03/07 02:08:04;;;;;;;27.23;19.27;;;1.30;63.30;;;0.20;47.46;95249.00;5015026;28;20212;-84
2022/03/07 02:10:42;;;;;;;31.83;20.83;;;1.30;63.40;;;0.21;47.70;95249.81;5016952;28;20214;-84
2022/03/07 02:13:15;;;;;;;32.38;20.90;;;1.30;63.40;;;0.17;47.56;95244.06;5000171;28;20318;-85
2022/03/07 02:15:55;;;;;;;30.40;21.05;;;1.30;63.50;;;0.15;47.75;95243.38;4995906;28;20666;-85
2022/03/07 02:18:29;;;;;;;30.63;20.77;;;1.30;64.00;;;0.13;47.67;95242.69;4996142;28;20312;-85
2022/03/07 02:21:14;;;;;;;29.60;19.98;;;1.30;63.60;;;0.10;47.82;95238.59;5013425;28;20201;-85
2022/03/07 02:24:16;;;;;;;30.38;20.80;;;1.20;63.70;;;0.07;47.72;95236.22;5011292;28;20236;-86
2022/03/07 02:27:02;;;;;;;30.08;19.92;;;1.20;63.50;;;0.04;47.75;95236.47;4999348;28;20239;-85
2022/03/07 02:29:31;;;;;;;32.22;21.35;;;1.20;63.90;;;-0.09;48.15;95212.59;5015596;28;20370;-85
2022/03/07 02:32:05;;;;;;;31.80;21.63;;;1.20;63.70;;;-0.01;48.01;95231.69;5015830;28;20217;-85
2022/03/07 02:34:36;;;;;;;31.15;21.50;;;1.20;63.70;;;0.01;48.02;95234.13;5001935;28;20413;-85
2022/03/07 02:37:04;;;;;;;29.67;21.17;;;1.20;63.80;;;0.01;48.38;95241.06;4999767;28;20264;-85
2022/03/07 02:39:50;;;;;;;30.27;21.80;;;1.20;63.90;;;-0.07;48.45;95233.91;5003830;28;20220;-84
2022/03/07 02:42:39;;;;;;;33.33;21.25;;;1.10;63.80;;;-0.05;48.65;95245.75;5011358;28;20200;-84
2022/03/07 02:45:07;;;;;;;32.17;21.73;;;1.10;63.80;;;-0.10;48.39;95234.16;4995633;28;20252;-85
2022/03/07 02:47:34;;;;;;;30.90;21.67;;;1.10;63.90;;;-0.07;48.47;95227.00;4996582;28;20197;-85
2022/03/07 02:50:03;;;;;;;35.63;22.77;;;1.10;63.90;;;-0.09;48.28;95234.00;5011729;28;20296;-84
2022/03/07 02:52:31;;;;;;;31.35;21.25;;;1.10;64.00;;;-0.10;48.56;95231.56;4995127;28;20256;-85
2022/03/07 02:54:58;;;;;;;30.08;21.00;;;1.10;64.00;;;-0.09;48.34;95239.16;4994254;28;20244;-84
2022/03/07 02:57:25;;;;;;;29.27;20.58;;;1.00;64.00;;;-0.10;48.57;95239.31;4995842;28;20793;-84
2022/03/07 02:59:54;;;;;;;31.35;22.83;;;1.00;64.00;;;-0.12;48.83;95252.31;5012270;28;20221;-85
2022/03/07 03:02:21;;;;;;;38.15;24.55;;;1.00;64.20;;;-0.14;48.96;95237.91;5013510;28;20737;-85
2022/03/07 03:04:49;;;;;;;36.15;24.63;;;1.00;64.30;;;-0.17;49.08;95237.19;4999022;28;20227;-84
2022/03/07 03:07:16;;;;;;;36.53;23.45;;;1.00;64.40;;;-0.20;49.27;95242.56;5014999;28;20255;-85
2022/03/07 03:09:45;;;;;;;34.33;23.30;;;1.00;64.40;;;-0.23;48.94;95240.25;5007732;28;20233;-85
2022/03/07 03:12:12;;;;;;;33.53;23.58;;;1.00;64.40;;;-0.22;49.25;95246.22;4995855;28;20271;-85
2022/03/07 03:14:40;;;;;;;36.90;23.63;;;0.90;64.60;;;-0.23;48.97;95247.97;4995685;28;20697;-85
2022/03/07 03:17:08;;;;;;;33.90;22.05;;;0.90;64.40;;;-0.24;48.92;95253.25;5013206;28;20292;-85
2022/03/07 03:19:35;;;;;;;32.60;21.63;;;0.90;64.40;;;-0.29;49.14;95248.44;5014271;28;20247;-84
2022/03/07 03:22:02;;;;;;;32.75;21.83;;;0.90;64.30;;;-0.29;48.88;95242.47;4998980;28;20248;-84
2022/03/07 03:24:29;;;;;;;31.55;21.83;;;0.90;64.20;;;-0.30;48.84;95246.00;4998757;28;20692;-85
2022/03/07 03:26:57;;;;;;;29.92;21.08;;;0.90;64.20;;;-0.30;48.85;95251.16;4987871;28;20201;-84
2022/03/07 03:29:24;;;;;;;31.00;19.70;;;0.80;64.00;;;-0.36;48.53;95240.34;5018435;28;20211;-85
2022/03/07 03:31:51;;;;;;;29.55;20.17;;;0.80;63.90;;;-0.36;48.60;95236.97;5016371;28;20200;-84
2022/03/07 03:34:18;;;;;;;29.63;20.35;;;0.80;63.90;;;-0.35;48.25;95233.44;5018780;28;20232;-85
2022/03/07 03:36:45;;;;;;;28.73;19.65;;;0.80;63.80;;;-0.35;48.12;95241.19;5018759;28;20371;-85
2022/03/07 03:39:13;;;;;;;30.60;19.92;;;0.70;63.70;;;-0.44;48.49;95232.41;4998900;28;20271;-85
2022/03/07 03:41:41;;;;;;;27.77;19.23;;;0.80;63.80;;;-0.40;48.28;95238.13;5015025;28;20209;-85
2022/03/07 03:44:08;;;;;;;30.70;20.73;;;0.80;63.80;;;-0.39;48.32;95244.91;5031186;28;20735;-85
2022/03/07 03:46:37;;;;;;;29.00;19.30;;;0.80;63.70;;;-0.43;48.21;95249.47;5014797;28;20224;-85
2022/03/07 03:49:04;;;;;;;29.67;20.33;;;0.70;63.60;;;-0.42;48.33;95252.88;4999782;28;20718;-85
2022/03/07 03:51:31;;;;;;;27.35;18.08;;;0.70;63.60;;;-0.45;48.20;95248.78;4982603;28;20201;-85
2022/03/07 03:54:01;;;;;;;30.35;19.88;;;0.70;63.50;;;-0.58;48.22;95230.03;4998677;28;20269;-85
2022/03/07 03:56:29;;;;;;;30.90;20.20;;;0.70;63.60;;;-0.56;48.25;95239.28;5004983;28;20216;-85
2022/03/07 03:58:56;;;;;;;29.85;19.95;;;0.70;63.50;;;-0.51;47.94;95251.84;5017888;28;20220;-85
2022/03/07 04:01:23;;;;;;;33.85;21.92;;;0.70;63.50;;;-0.55;47.89;95247.81;5017882;28;20255;-85
2022/03/07 04:03:51;;;;;;;29.55;20.25;;;0.60;63.50;;;-0.60;47.92;95244.78;5018338;28;20687;-85
2022/03/07 04:06:18;;;;;;;30.23;20.25;;;0.60;63.50;;;-0.60;48.37;95247.34;5015655;28;20244;-85
2022/03/07 04:08:55;;;;;;;30.40;20.75;;;0.60;63.50;;;-0.62;48.04;95247.47;4996840;28;20232;-85
2022/03/07 04:11:25;;;;;;;29.77;20.48;;;0.60;63.50;;;-0.66;48.06;95251.19;5012749;28;20194;-85
2022/03/07 04:13:53;;;;;;;31.42;20.40;;;0.50;63.50;;;-0.68;48.15;95243.59;4994493;28;20262;-84
2022/03/07 04:16:20;;;;;;;29.85;19.60;;;0.50;63.50;;;-0.67;47.88;95250.38;5037218;28;20676;-85
2022/03/07 04:18:47;;;;;;;29.45;20.63;;;0.50;63.50;;;-0.68;48.12;95245.38;5017098;28;20270;-83
2022/03/07 04:21:14;;;;;;;30.35;21.08;;;0.50;64.40;;;-0.70;48.06;95242.06;5016716;28;20184;-85
2022/03/07 04:23:41;;;;;;;31.38;21.00;;;0.50;63.50;;;-0.78;48.01;95241.81;5001046;28;20227;-85
2022/03/07 04:26:09;;;;;;;32.40;22.48;;;0.50;63.60;;;-0.76;48.21;95253.63;5017190;28;20207;-85
2022/03/07 04:28:36;;;;;;;32.85;21.77;;;0.40;63.50;;;-0.87;48.25;95238.16;5033511;28;20231;-85
2022/03/07 04:31:03;;;;;;;30.35;20.67;;;0.40;63.60;;;-0.81;48.05;95250.59;5002274;28;20276;-84
2022/03/07 04:33:30;;;;;;;29.17;19.77;;;0.40;63.70;;;-0.93;48.33;95230.91;5013714;28;20229;-85
2022/03/07 04:35:58;;;;;;;35.08;21.73;;;0.40;63.80;;;-0.87;48.32;95241.56;4997664;28;20229;-85
2022/03/07 04:38:26;;;;;;;30.45;20.80;;;0.30;63.70;;;-0.85;48.39;95246.63;4997339;28;20299;-84
2022/03/07 04:40:54;;;;;;;29.65;21.00;;;0.30;63.70;;;-0.90;48.41;95241.78;5046182;28;20251;-85
2022/03/07 04:43:48;;;;;;;31.08;20.73;;;0.30;63.80;;;-0.88;48.50;95245.09;5030009;28;20225;-84
2022/03/07 04:46:15;;;;;;;30.83;19.85;;;0.30;63.80;;;-0.93;48.14;95246.34;5026974;28;20194;-84
2022/03/07 04:48:42;;;;;;;28.98;19.02;;;0.30;63.80;;;-0.92;48.12;95243.66;5014371;28;20221;-84
2022/03/07 04:51:10;;;;;;;30.80;21.00;;;0.20;63.60;;;-0.92;48.35;95245.41;5013400;28;20288;-84
2022/03/07 04:53:37;;;;;;;31.92;21.00;;;0.30;63.70;;;-0.99;48.07;95238.16;4997011;28;20241;-85
2022/03/07 04:56:04;;;;;;;32.40;20.63;;;0.30;63.70;;;-0.91;48.29;95262.50;4997331;28;20292;-85
2022/03/07 04:58:32;;;;;;;29.45;19.70;;;0.20;63.80;;;-0.93;48.40;95256.66;4981014;28;20213;-85
2022/03/07 05:00:59;;;;;;;28.77;20.40;;;0.20;63.60;;;-0.93;48.19;95254.88;4999777;28;20530;-85
2022/03/07 05:03:27;;;;;;;28.02;19.55;;;0.20;63.70;;;-0.90;48.28;95264.16;5016378;28;20227;-85
2022/03/07 05:05:54;;;;;;;29.30;20.88;;;0.20;63.70;;;-0.94;48.79;95252.44;5012883;28;20714;-84
2022/03/07 05:08:21;;;;;;;30.45;20.90;;;0.20;63.90;;;-1.02;48.29;95245.28;4996699;28;20225;-85
2022/03/07 05:10:48;;;;;;;31.98;21.13;;;0.20;63.80;;;-0.90;48.29;95259.81;5002347;28;20197;-85
2022/03/07 05:13:16;;;;;;;28.20;20.83;;;0.20;63.90;;;-0.90;48.28;95272.69;4996383;28;20253;-84
2022/03/07 05:15:43;;;;;;;31.02;19.58;;;0.20;63.90;;;-0.86;48.20;95273.28;5006515;28;20205;-84
2022/03/07 05:18:10;;;;;;;30.20;20.48;;;0.20;63.90;;;-0.86;48.36;95266.38;5010481;28;20213;-85
2022/03/07 05:20:37;;;;;;;33.95;21.45;;;0.20;63.90;;;-0.91;48.69;95265.09;5034401;28;20210;-85
2022/03/07 05:23:23;;;;;;;31.20;20.73;;;0.30;64.10;;;-0.87;48.61;95269.88;4999185;28;20623;-84
2022/03/07 05:25:50;;;;;;;30.48;19.75;;;0.30;64.20;;;-0.93;48.29;95260.03;5032688;28;20208;-84
2022/03/07 05:28:17;;;;;;;34.08;21.67;;;0.30;64.10;;;-0.87;48.93;95276.78;5013578;28;20290;-84
2022/03/07 05:30:45;;;;;;;32.67;20.50;;;0.30;64.30;;;-0.86;48.55;95276.69;4995748;28;20193;-84
2022/03/07 05:33:12;;;;;;;29.77;19.52;;;0.30;64.40;;;-0.85;48.93;95277.50;4996350;28;20424;-84
2022/03/07 05:35:39;;;;;;;32.00;22.40;;;0.30;64.80;;;-0.85;49.21;95275.75;5001994;28;20758;-84
2022/03/07 05:38:08;;;;;;;29.80;20.20;;;0.30;64.70;;;-0.86;49.30;95268.94;5001179;28;20317;-84
2022/03/07 05:40:35;;;;;;;31.80;22.85;;;0.30;64.70;;;-0.90;49.61;95272.69;5003472;28;20204;-84
2022/03/07 05:43:02;;;;;;;32.30;21.92;;;0.30;65.00;;;-0.92;49.97;95274.56;5007023;28;20193;-84
2022/03/07 05:45:30;;;;;;;34.17;22.40;;;0.30;65.00;;;-0.93;49.88;95274.66;5011657;28;20204;-85
2022/03/07 05:47:57;;;;;;;37.65;23.60;;;0.20;65.10;;;-1.04;50.13;95263.41;5011675;28;20243;-83
2022/03/07 05:50:24;;;;;;;34.65;23.60;;;0.20;65.30;;;-1.01;50.52;95280.38;4997538;28;20270;-83
2022/03/07 05:52:51;;;;;;;33.42;22.85;;;0.20;65.50;;;-1.00;50.69;95282.00;4999965;28;20290;-84
2022/03/07 05:55:24;;;;;;;35.72;24.27;;;0.20;65.50;;;-1.02;50.90;95289.03;5014044;28;20291;-84
2022/03/07 05:57:51;;;;;;;35.00;22.98;;;0.20;65.80;;;-1.05;50.79;95284.94;5008986;28;20401;-84
2022/03/07 06:00:18;;;;;;;32.80;22.13;;;0.20;65.60;;;-1.05;50.57;95282.38;4983690;28;20209;-84
2022/03/07 06:02:45;;;;;;;31.08;21.63;;;0.10;65.60;;;-1.05;50.94;95290.09;5001826;28;20193;-84
2022/03/07 06:05:13;;;;;;;35.00;21.75;;;0.10;66.50;;;-1.05;50.64;95287.50;5003851;28;20225;-83
2022/03/07 06:07:40;;;;;;;31.88;20.85;;;0.10;66.20;;;-1.05;50.86;95295.22;5021564;28;20258;-84
2022/03/07 06:10:08;;;;;;;31.80;21.30;;;0.10;65.70;;;-1.03;50.90;95293.34;5026848;28;20232;-85
2022/03/07 06:12:36;;;;;;;39.70;25.38;;;0.10;65.60;;;-1.07;51.36;95289.38;5026089;28;20266;-85
2022/03/07 06:15:04;;;;;;;35.50;23.15;;;0.10;66.20;;;-1.13;51.19;95275.19;5023813;28;20317;-85
2022/03/07 06:17:32;;;;;;;35.95;23.38;;;0.10;66.10;;;-1.07;51.20;95288.56;5009393;28;20229;-84
2022/03/07 06:20:00;;;;;;;33.30;22.90;;;0.10;66.10;;;-1.08;51.03;95280.00;5008400;28;20229;-84
2022/03/07 06:22:27;;;;;;;34.30;22.98;;;0.00;65.90;;;-1.07;51.38;95294.50;5003437;28;20227;-84
2022/03/07 06:24:54;;;;;;;38.85;23.45;;;0.10;66.10;;;-1.05;51.35;95299.53;5007871;28;20267;-83
2022/03/07 06:27:21;;;;;;;32.03;21.30;;;0.10;66.10;;;-1.03;51.11;95303.66;5025326;28;20251;-84
2022/03/07 06:29:49;;;;;;;32.40;23.67;;;0.10;66.00;;;-1.03;51.17;95306.22;4999166;28;20310;-84
2022/03/07 06:32:16;;;;;;;33.65;23.63;;;0.10;66.10;;;-0.98;51.16;95317.03;5004103;28;20193;-84
2022/03/07 06:34:43;;;;;;;37.60;23.83;;;0.10;66.00;;;-1.11;51.05;95287.97;5000419;28;20237;-84
2022/03/07 06:37:11;;;;;;;33.78;22.70;;;0.10;66.10;;;-0.98;51.42;95317.03;5017220;28;20205;-84
2022/03/07 06:39:38;;;;;;;36.35;24.15;;;0.10;66.20;;;-0.93;51.28;95321.00;5010692;28;20228;-84
2022/03/07 06:42:05;;;;;;;34.97;23.83;;;0.10;66.30;;;-0.94;50.95;95319.38;5011890;28;20220;-84
2022/03/07 06:44:33;;;;;;;34.00;22.80;;;0.10;66.30;;;-0.90;51.63;95328.53;5013990;28;20236;-84
2022/03/07 06:47:00;;;;;;;34.60;23.65;;;0.20;66.30;;;-0.87;51.10;95333.44;5007390;28;20205;-84
2022/03/07 06:49:27;;;;;;;34.42;23.85;;;0.20;66.30;;;-0.85;51.19;95337.56;5009493;28;20308;-84
2022/03/07 06:51:54;;;;;;;35.08;23.42;;;0.20;66.40;;;-0.85;50.98;95329.81;5009133;28;20718;-84
2022/03/07 06:54:21;;;;;;;36.50;24.08;;;0.20;66.40;;;-0.78;51.26;95345.66;5013817;28;20659;-83
2022/03/07 06:56:49;;;;;;;34.42;23.27;;;0.20;66.30;;;-0.72;51.34;95346.97;5004037;28;20200;-84
2022/03/07 06:59:16;;;;;;;34.92;23.05;;;0.20;66.30;;;-0.77;51.03;95336.97;4989344;28;20237;-84
2022/03/07 07:01:43;;;;;;;38.20;24.77;;;0.30;66.40;;;-0.67;51.33;95361.16;5029938;28;20186;-85
2022/03/07 07:04:11;;;;;;;34.33;23.65;;;0.30;66.40;;;-0.66;51.46;95359.38;4978814;28;20271;-84
2022/03/07 07:06:38;;;;;;;33.80;24.10;;;0.30;66.40;;;-0.62;51.37;95360.81;5003571;28;20214;-84
2022/03/07 07:09:06;;;;;;;36.70;24.25;;;0.40;67.10;;;-0.58;51.37;95369.97;4999001;28;20229;-85
2022/03/07 07:11:33;;;;;;;33.42;22.73;;;0.40;66.40;;;-0.56;51.09;95367.28;5030294;28;20209;-84
2022/03/07 07:14:00;;;;;;;30.88;21.30;;;0.40;66.40;;;-0.50;51.18;95383.13;5011593;28;20756;-85
2022/03/07 07:16:27;;;;;;;30.75;21.17;;;0.40;66.40;;;-0.44;50.96;95368.13;4998361;28;20302;-83
2022/03/07 07:18:55;;;;;;;29.80;19.98;;;0.50;66.30;;;-0.42;50.79;95371.44;5001350;28;20225;-83
2022/03/07 07:21:22;;;;;;;26.50;18.25;;;0.50;66.00;;;-0.46;50.50;95364.84;4993921;28;20229;-84
2022/03/07 07:23:51;;;;;;;23.55;16.63;;;0.50;65.70;;;-0.44;50.21;95371.56;5030278;28;20630;-84
2022/03/07 07:26:18;;;;;;;18.98;13.80;;;0.50;65.50;;;-0.35;49.67;95394.06;5001426;28;20726;-83
2022/03/07 07:28:46;;;;;;;17.48;13.43;;;0.60;65.00;;;-0.32;49.51;95403.31;5012950;28;20216;-83
2022/03/07 07:31:13;;;;;;;19.10;13.63;;;0.60;64.70;;;-0.30;48.97;95398.88;5001932;28;20283;-83
2022/03/07 07:33:44;;;;;;;17.95;11.82;;;0.60;64.60;;;-0.25;49.11;95407.09;5005412;28;20846;-83
2022/03/07 07:36:11;;;;;;;18.33;11.93;;;0.70;64.60;;;-0.19;49.04;95405.81;5003967;28;20564;-84
2022/03/07 07:38:38;;;;;;;18.02;12.88;;;0.70;64.50;;;-0.13;48.93;95404.56;4988014;28;20323;-84
2022/03/07 07:41:06;;;;;;;17.63;12.65;;;0.70;64.50;;;-0.10;48.83;95399.16;5009258;28;20201;-84
2022/03/07 07:43:39;;;;;;;19.23;14.20;;;0.80;64.50;;;-0.02;48.52;95409.72;5024142;28;20240;-83
2022/03/07 07:46:07;;;;;;;19.73;13.75;;;0.80;64.30;;;0.01;48.32;95403.53;5002801;28;20236;-83
2022/03/07 07:48:35;;;;;;;20.40;12.80;;;0.90;64.20;;;-0.06;48.09;95379.94;5023988;28;20283;-83
2022/03/07 07:51:02;;;;;;;18.15;12.65;;;0.90;64.10;;;0.06;48.19;95394.50;4999195;28;20228;-83
2022/03/07 07:53:34;;;;;;;16.00;11.88;;;0.90;64.20;;;0.21;48.13;95407.16;4997026;28;20240;-83
2022/03/07 07:56:02;;;;;;;19.27;12.65;;;1.00;64.00;;;0.27;47.62;95411.84;5001196;28;20296;-83
2022/03/07 07:58:29;;;;;;;17.83;12.20;;;1.00;63.80;;;0.29;47.79;95408.25;4999915;28;20217;-83
2022/03/07 08:00:56;;;;;;;19.45;12.85;;;1.20;63.80;;;0.32;47.44;95412.34;5008482;28;20197;-83
2022/03/07 08:03:24;;;;;;;19.30;12.60;;;1.10;63.40;;;0.37;47.30;95417.97;5026243;28;20231;-82
2022/03/07 08:05:52;;;;;;;20.27;12.10;;;1.20;63.50;;;0.46;47.53;95416.47;5004655;28;20287;-83
2022/03/07 08:08:20;;;;;;;19.13;13.07;;;1.20;63.60;;;0.56;47.38;95414.00;4999136;28;20217;-83
2022/03/07 08:10:47;;;;;;;18.33;12.93;;;1.30;63.80;;;0.61;46.73;95430.78;5010730;28;20202;-84
2022/03/07 08:13:14;;;;;;;21.58;13.88;;;1.30;63.00;;;0.63;46.57;95426.34;5010669;28;20283;-83
2022/03/07 08:15:42;;;;;;;18.48;12.38;;;1.40;63.20;;;0.66;46.47;95424.44;4983200;28;20295;-83
2022/03/07 08:18:09;;;;;;;16.40;12.20;;;1.40;63.00;;;0.68;46.28;95422.56;5006600;28;20265;-83
2022/03/07 08:20:36;;;;;;;15.20;11.55;;;1.40;62.80;;;0.71;46.47;95406.81;5009407;28;20614;-84
2022/03/07 08:23:04;;;;;;;15.38;11.10;;;1.50;63.20;;;0.71;46.66;95399.06;4983314;28;20286;-83
2022/03/07 08:25:32;;;;;;;17.13;11.85;;;1.50;63.10;;;0.89;46.54;95420.06;5021149;28;20201;-83
2022/03/07 08:28:00;;;;;;;15.15;11.68;;;1.60;63.20;;;0.94;46.73;95412.78;5009178;28;20205;-83
2022/03/07 08:30:28;;;;;;;17.38;12.43;;;1.70;63.40;;;1.05;46.51;95417.09;5004394;28;20670;-83
2022/03/07 08:32:56;;;;;;;17.27;12.00;;;1.70;62.80;;;1.10;45.71;95428.72;5002817;28;20203;-83
2022/03/07 08:35:24;;;;;;;20.67;13.73;;;1.70;62.80;;;1.07;44.97;95416.03;5027441;28;20232;-82
2022/03/07 08:37:53;;;;;;;19.90;14.10;;;1.80;62.10;;;1.10;45.81;95415.00;5001232;28;20280;-83
2022/03/07 08:40:23;;;;;;;18.73;13.07;;;1.80;62.20;;;1.09;45.07;95410.78;5000042;28;20670;-83
2022/03/07 08:42:52;;;;;;;20.17;13.68;;;1.80;62.20;;;1.10;45.29;95407.25;5005534;28;20205;-84
2022/03/07 08:45:22;;;;;;;17.15;12.57;;;1.90;62.30;;;1.13;45.15;95409.59;5007862;28;20536;-84
2022/03/07 08:48:05;;;;;;;22.10;14.05;;;1.90;62.30;;;1.19;45.21;95401.34;4985424;28;20194;-85
2022/03/07 08:50:33;;;;;;;18.85;12.68;;;1.90;62.30;;;1.34;45.11;95409.63;5001158;28;20217;-84
2022/03/07 08:53:00;;;;;;;17.13;12.07;;;2.00;62.50;;;1.46;45.11;95404.44;5000701;28;20667;-85
2022/03/07 08:55:27;;;;;;;16.77;12.52;;;2.00;62.60;;;1.59;45.36;95416.25;5003441;28;20248;-85
2022/03/07 08:57:55;;;;;;;16.65;12.30;;;2.10;62.60;;;1.68;45.20;95401.75;5000888;28;20228;-84
2022/03/07 09:00:22;;;;;;;16.75;11.65;;;2.20;62.70;;;1.84;45.06;95408.25;4993587;28;20237;-85
2022/03/07 09:02:49;;;;;;;15.57;11.90;;;2.30;62.80;;;1.97;45.04;95406.31;5000418;28;20284;-85
2022/03/07 09:05:17;;;;;;;15.52;10.90;;;2.40;62.60;;;2.08;44.71;95413.19;5011069;28;20197;-86
2022/03/07 09:07:44;;;;;;;14.93;10.73;;;2.50;62.50;;;2.16;44.68;95404.78;5003749;28;20663;-85
2022/03/07 09:10:11;;;;;;;16.55;10.98;;;2.60;62.40;;;2.26;44.79;95416.03;4992762;28;20237;-86
2022/03/07 09:12:38;;;;;;;17.92;11.50;;;2.70;62.60;;;2.34;44.48;95413.59;5018530;28;20201;-85
2022/03/07 09:15:06;;;;;;;14.90;11.05;;;2.80;62.20;;;2.37;44.75;95408.19;5020875;28;20221;-85
2022/03/07 09:17:35;;;;;;;14.15;10.32;;;2.80;61.90;;;2.45;44.20;95406.72;5003286;28;20640;-85
2022/03/07 09:20:05;;;;;;;14.57;9.93;;;2.90;62.10;;;2.55;44.40;95416.16;5002668;28;20221;-86
2022/03/07 09:22:33;;;;;;;14.40;11.40;;;2.90;62.20;;;2.67;44.23;95396.19;5007996;28;20216;-86
2022/03/07 09:25:05;;;;;;;13.60;10.32;;;3.10;62.20;;;2.78;44.30;95405.59;5036945;28;20304;-86
2022/03/07 09:27:32;;;;;;;14.48;10.60;;;3.10;62.20;;;2.91;44.58;95397.63;4996214;28;20205;-86
2022/03/07 09:29:59;;;;;;;24.23;11.30;;;3.30;62.20;;;3.00;44.05;95398.59;4989041;28;20282;-86
2022/03/07 09:32:26;;;;;;;13.82;10.18;;;3.30;61.80;;;3.09;44.29;95402.13;5017756;28;20209;-86
2022/03/07 09:34:54;;;;;;;14.57;11.02;;;3.40;62.00;;;3.11;43.46;95402.84;5004018;28;20223;-85
2022/03/07 09:37:21;;;;;;;15.65;11.07;;;3.50;61.70;;;3.11;43.06;95403.66;5004626;28;20729;-86
2022/03/07 09:39:49;;;;;;;15.15;10.57;;;3.60;61.30;;;3.10;43.21;95406.38;5030224;28;20231;-85
2022/03/07 09:42:17;;;;;;;13.40;10.48;;;3.60;61.10;;;3.04;42.85;95405.16;5026861;28;20205;-86
2022/03/07 09:44:45;;;;;;;13.50;10.05;;;3.60;61.80;;;3.03;42.98;95396.53;4996395;28;20308;-86
2022/03/07 09:47:13;;;;;;;15.60;10.27;;;3.70;61.20;;;2.97;43.60;95384.13;5010563;28;20425;-86
2022/03/07 09:49:41;;;;;;;13.88;10.43;;;3.60;61.30;;;3.04;43.00;95400.78;4992069;28;20267;-86
2022/03/07 09:52:08;;;;;;;16.25;10.30;;;3.70;61.00;;;3.11;43.37;95408.81;4989559;28;20193;-87
2022/03/07 09:54:37;;;;;;;14.57;10.23;;;3.70;61.00;;;3.11;43.46;95393.28;4989108;28;20228;-86
2022/03/07 09:57:05;;;;;;;13.60;10.05;;;3.70;61.10;;;3.10;43.28;95386.47;4997540;28;20212;-86
2022/03/07 09:59:34;;;;;;;13.27;9.75;;;3.80;61.10;;;3.08;43.39;95388.38;4980709;28;20283;-86
2022/03/07 10:02:05;;;;;;;12.70;10.00;;;3.80;61.20;;;3.19;43.24;95392.63;5030124;28;20583;-85
2022/03/07 10:04:42;;;;;;;10.38;9.05;;;3.80;61.10;;;3.17;42.98;95389.34;4980641;28;20230;-85
2022/03/07 10:07:10;;;;;;;13.27;9.48;;;3.80;60.60;;;3.23;43.28;95391.41;5057353;28;20201;-86
2022/03/07 10:09:37;;;;;;;12.73;9.10;;;3.80;61.30;;;3.31;43.45;95394.13;4979816;28;20228;-87
2022/03/07 10:12:05;;;;;;;13.63;9.05;;;3.80;61.20;;;3.42;43.03;95397.53;4979308;28;20229;-87
2022/03/07 10:14:44;;;;;;;13.77;10.50;;;3.90;61.30;;;3.46;42.91;95397.16;4996459;28;20221;-87
2022/03/07 10:17:24;;;;;;;12.75;10.05;;;3.90;60.80;;;3.52;42.83;95399.19;5009487;28;20296;-87
2022/03/07 10:19:54;;;;;;;14.75;10.30;;;4.00;60.60;;;3.46;42.69;95376.41;4977642;28;20214;-88
2022/03/07 10:22:25;;;;;;;13.88;10.65;;;4.00;60.80;;;3.61;42.67;95399.34;4995553;28;20201;-86